Time;durP1;ratioP1;P1;durP2;ratioP2;P2;SDS_P1;SDS_P2;PMS_P1;PMS_P2;Temp;Humidity;BMP_temperature;BMP_pressure;BME280_temperature;BME280_humidity;BME280_pressure;Samples;Min_cycle;Max_cycle;Signal;HPM_P1;HPM_P2
2022/12/09 00:00:16;;;;;;;30.25;11.43;;;3.10;99.90;;;;;;5071176;28;20400;-34
2022/12/09 00:02:42;;;;;;;28.73;10.75;;;3.10;99.90;;;;;;5071013;28;20389;-32
2022/12/09 00:05:08;;;;;;;32.28;10.90;;;3.10;99.90;;;;;;5062705;28;20012;-35
2022/12/09 00:07:35;;;;;;;28.88;10.32;;;3.10;99.90;;;;;;5072618;28;20032;-34
2022/12/09 00:10:01;;;;;;;24.50;10.05;;;3.10;99.90;;;;;;5069674;28;20488;-35
2022/12/09 00:12:26;;;;;;;27.05;9.77;;;3.10;99.90;;;;;;5052693;28;20044;-33
2022/12/09 00:14:52;;;;;;;33.28;9.57;;;3.10;99.90;;;;;;5052976;28;20021;-52
2022/12/09 00:17:18;;;;;;;20.65;8.95;;;3.10;99.90;;;;;;5067781;28;20055;-33
2022/12/09 00:19:43;;;;;;;27.40;10.45;;;3.10;99.90;;;;;;5054137;28;20021;-33
2022/12/09 00:22:09;;;;;;;27.58;11.27;;;3.00;99.90;;;;;;5052163;28;20623;-32
2022/12/09 00:24:34;;;;;;;29.90;11.10;;;3.00;99.90;;;;;;5053604;28;20147;-33
2022/12/09 00:27:00;;;;;;;32.40;10.82;;;3.00;99.90;;;;;;5068049;28;20036;-31
2022/12/09 00:29:26;;;;;;;31.45;11.43;;;2.90;99.90;;;;;;5070714;28;20117;-31
2022/12/09 00:31:51;;;;;;;28.00;10.35;;;2.80;99.90;;;;;;5056998;28;20386;-35
2022/12/09 00:34:17;;;;;;;29.48;11.98;;;2.80;99.90;;;;;;5060366;28;20481;-32
2022/12/09 00:36:42;;;;;;;28.92;11.00;;;2.80;99.90;;;;;;5065734;28;20027;-34
2022/12/09 00:39:11;;;;;;;28.98;11.07;;;2.80;99.90;;;;;;5061071;28;20032;-34
2022/12/09 00:41:36;;;;;;;;;;;2.90;99.90;;;;;;5069959;28;20033;-31
2022/12/09 00:44:03;;;;;;;28.83;9.30;;;2.90;99.90;;;;;;5065231;28;20293;-36
2022/12/09 00:46:28;;;;;;;31.60;11.18;;;2.90;99.90;;;;;;5063314;28;20354;-36
2022/12/09 00:48:54;;;;;;;29.58;11.23;;;3.00;99.90;;;;;;5068178;28;20031;-33
2022/12/09 00:51:24;;;;;;;36.33;12.25;;;3.00;99.90;;;;;;5069360;28;20516;-33
2022/12/09 00:53:54;;;;;;;23.98;9.80;;;3.10;99.90;;;;;;5072397;28;20045;-35
2022/12/09 00:56:25;;;;;;;29.75;9.98;;;3.20;99.90;;;;;;5070662;28;20040;-31
2022/12/09 00:58:51;;;;;;;31.90;11.00;;;3.30;99.90;;;;;;5072080;28;20056;-33
2022/12/09 01:01:17;;;;;;;19.33;8.23;;;3.30;99.90;;;;;;5069637;28;20067;-33
2022/12/09 01:03:42;;;;;;;31.20;9.90;;;3.30;99.90;;;;;;5055840;28;20446;-34
2022/12/09 01:06:11;;;;;;;25.17;8.18;;;3.20;99.90;;;;;;5067518;28;20107;-33
2022/12/09 01:08:37;;;;;;;27.42;10.18;;;3.20;99.90;;;;;;5075659;28;20373;-31
2022/12/09 01:11:16;;;;;;;27.52;9.98;;;3.20;99.90;;;;;;5074452;28;20029;-34
2022/12/09 01:13:41;;;;;;;29.00;10.23;;;3.30;99.90;;;;;;5060711;28;20481;-34
2022/12/09 01:16:17;;;;;;;25.92;8.88;;;3.30;99.90;;;;;;5055656;28;20155;-34
2022/12/09 01:18:44;;;;;;;34.90;11.27;;;3.20;99.90;;;;;;5062434;28;20035;-36
2022/12/09 01:21:09;;;;;;;23.10;9.02;;;3.20;99.90;;;;;;5074524;28;20499;-38
2022/12/09 01:23:35;;;;;;;32.75;9.77;;;3.10;99.90;;;;;;5055555;28;20020;-34
2022/12/09 01:26:03;;;;;;;27.60;9.57;;;3.10;99.90;;;;;;5055316;28;20051;-31
2022/12/09 01:28:28;;;;;;;19.67;6.43;;;3.30;99.90;;;;;;5054326;28;20393;-34
2022/12/09 01:30:54;;;;;;;25.23;9.32;;;3.20;99.90;;;;;;5056013;28;20031;-33
2022/12/09 01:33:19;;;;;;;33.08;9.25;;;3.20;99.90;;;;;;5055573;28;20465;-32
2022/12/09 01:35:48;;;;;;;33.00;9.80;;;3.20;99.90;;;;;;5055357;28;20388;-34
2022/12/09 01:38:13;;;;;;;24.95;9.35;;;3.10;99.90;;;;;;5070952;28;20021;-35
2022/12/09 01:40:45;;;;;;;22.85;8.68;;;3.10;99.90;;;;;;5058611;28;20445;-35
2022/12/09 01:43:18;;;;;;;30.05;10.23;;;3.10;99.90;;;;;;5063334;28;20538;-35
2022/12/09 01:45:44;;;;;;;23.75;9.98;;;3.10;99.90;;;;;;5061354;28;20026;-38
2022/12/09 01:48:15;;;;;;;29.75;9.27;;;3.10;99.90;;;;;;5063016;28;20031;-35
2022/12/09 01:50:58;;;;;;;33.05;9.63;;;3.10;99.90;;;;;;5061652;28;20510;-35
2022/12/09 01:53:27;;;;;;;21.95;8.45;;;3.10;99.90;;;;;;5057489;28;20060;-36
2022/12/09 01:55:56;;;;;;;33.40;10.35;;;3.10;99.90;;;;;;5057055;28;20100;-36
2022/12/09 01:58:23;;;;;;;30.60;9.70;;;3.10;99.90;;;;;;5055440;28;20484;-38
2022/12/09 02:00:48;;;;;;;29.63;10.63;;;3.10;99.90;;;;;;5058426;28;20384;-36
2022/12/09 02:03:14;;;;;;;26.67;8.50;;;3.10;99.90;;;;;;5056568;28;20103;-36
2022/12/09 02:05:40;;;;;;;24.30;9.10;;;3.00;99.90;;;;;;5066361;28;20039;-43
2022/12/09 02:08:10;;;;;;;17.80;7.43;;;2.90;99.90;;;;;;5057159;28;20078;-33
2022/12/09 02:10:42;;;;;;;27.50;8.70;;;2.90;99.90;;;;;;5054996;28;20484;-36
2022/12/09 02:13:30;;;;;;;23.50;9.25;;;3.00;99.90;;;;;;5072047;28;20476;-34
2022/12/09 02:16:00;;;;;;;23.05;8.68;;;3.00;99.90;;;;;;5074549;28;20070;-38
2022/12/09 02:18:49;;;;;;;25.95;9.50;;;3.10;99.90;;;;;;5074599;28;20099;-35
2022/12/09 02:22:02;;;;;;;24.00;9.43;;;3.10;99.90;;;;;;5062849;28;20040;-36
2022/12/09 02:24:54;;;;;;;20.05;8.30;;;3.10;99.90;;;;;;5049538;28;20489;-36
2022/12/09 02:27:49;;;;;;;22.27;8.80;;;3.10;99.90;;;;;;5062757;28;20029;-35
2022/12/09 02:30:36;;;;;;;24.98;9.30;;;3.10;99.90;;;;;;5052774;28;20103;-34
2022/12/09 02:33:44;;;;;;;22.75;9.05;;;3.20;99.90;;;;;;5054527;28;20484;-35
2022/12/09 02:36:15;;;;;;;22.90;8.85;;;3.20;99.90;;;;;;5034284;28;20041;-34
2022/12/09 02:38:42;;;;;;;20.95;8.20;;;3.20;99.90;;;;;;5053079;28;20122;-33
2022/12/09 02:41:08;;;;;;;19.95;8.80;;;3.20;99.90;;;;;;5053372;28;20474;-37
2022/12/09 02:43:38;;;;;;;20.45;8.85;;;3.20;99.90;;;;;;5059268;28;20112;-35
2022/12/09 02:46:07;;;;;;;20.55;7.80;;;3.20;99.90;;;;;;5067828;28;20500;-38
2022/12/09 02:48:39;;;;;;;24.48;8.27;;;3.30;99.90;;;;;;5058709;28;20063;-35
2022/12/09 02:51:09;;;;;;;21.15;8.48;;;3.30;99.90;;;;;;5060086;28;20103;-34
2022/12/09 02:53:37;;;;;;;19.05;8.43;;;3.30;99.90;;;;;;5059297;28;20047;-35
2022/12/09 02:56:03;;;;;;;;;;;3.20;99.90;;;;;;5063203;28;20083;-37
2022/12/09 02:58:29;;;;;;;22.55;8.18;;;3.10;99.90;;;;;;5057372;28;19916;-39
2022/12/09 03:00:55;;;;;;;21.48;8.73;;;3.10;99.90;;;;;;5057319;28;20029;-38
2022/12/09 03:03:21;;;;;;;17.95;8.07;;;3.10;99.90;;;;;;5053998;28;20029;-34
2022/12/09 03:05:53;;;;;;;19.02;7.57;;;3.10;99.90;;;;;;5056579;28;20048;-34
2022/12/09 03:08:24;;;;;;;18.00;7.72;;;3.00;99.90;;;;;;5060842;28;20031;-35
2022/12/09 03:11:01;;;;;;;20.38;7.57;;;3.00;99.90;;;;;;5068014;28;20040;-33
2022/12/09 03:13:58;;;;;;;16.98;6.97;;;3.00;99.90;;;;;;5056850;28;20036;-37
2022/12/09 03:16:38;;;;;;;19.38;7.60;;;3.00;99.90;;;;;;5064025;28;20017;-33
2022/12/09 03:19:32;;;;;;;19.98;8.43;;;2.80;99.90;;;;;;5053187;28;20461;-32
2022/12/09 03:22:04;;;;;;;20.30;7.82;;;2.80;99.90;;;;;;5066027;28;20025;-36
2022/12/09 03:24:38;;;;;;;24.55;9.50;;;2.70;99.90;;;;;;5056850;28;20107;-33
2022/12/09 03:27:06;;;;;;;18.58;8.35;;;2.60;99.90;;;;;;5069757;28;20549;-44
2022/12/09 03:29:36;;;;;;;24.55;8.27;;;2.60;99.90;;;;;;5058399;28;20444;-39
2022/12/09 03:32:02;;;;;;;21.27;8.70;;;2.50;99.90;;;;;;5056697;28;20614;-42
2022/12/09 03:34:34;;;;;;;25.40;7.38;;;2.60;99.90;;;;;;5057236;28;20095;-44
2022/12/09 03:37:02;;;;;;;22.30;8.18;;;2.50;99.90;;;;;;5069793;28;20495;-41
2022/12/09 03:39:34;;;;;;;17.63;6.75;;;2.60;99.90;;;;;;5062673;28;20020;-41
2022/12/09 03:42:05;;;;;;;25.75;7.57;;;2.60;99.90;;;;;;5058116;28;20025;-40
2022/12/09 03:44:37;;;;;;;21.13;8.35;;;2.70;99.90;;;;;;5061649;28;20024;-35
2022/12/09 03:47:05;;;;;;;21.95;7.80;;;2.70;99.90;;;;;;5063381;28;20032;-33
2022/12/09 03:49:32;;;;;;;23.63;7.68;;;2.80;99.90;;;;;;5057307;28;20130;-36
2022/12/09 03:52:27;;;;;;;19.23;7.80;;;2.80;99.90;;;;;;5062581;28;20100;-45
2022/12/09 03:55:00;;;;;;;19.65;7.68;;;2.80;99.90;;;;;;5050027;28;20055;-40
2022/12/09 03:57:27;;;;;;;22.27;7.38;;;2.80;99.90;;;;;;5054243;28;20126;-33
2022/12/09 03:59:57;;;;;;;17.02;6.80;;;2.80;99.90;;;;;;5054587;28;20033;-33
2022/12/09 04:02:24;;;;;;;17.27;7.05;;;2.80;99.90;;;;;;5054084;28;20025;-34
2022/12/09 04:04:50;;;;;;;18.77;7.63;;;2.70;99.90;;;;;;5055476;28;20104;-37
2022/12/09 04:07:16;;;;;;;18.20;7.75;;;2.80;99.90;;;;;;5062425;28;20033;-35
2022/12/09 04:09:42;;;;;;;21.80;8.43;;;2.80;99.90;;;;;;5060893;28;20120;-33
2022/12/09 04:12:07;;;;;;;24.13;7.43;;;2.80;99.90;;;;;;5059637;28;20088;-52
2022/12/09 04:14:33;;;;;;;16.70;8.07;;;2.90;99.90;;;;;;5059833;28;20024;-36
2022/12/09 04:16:59;;;;;;;15.52;6.55;;;2.90;99.90;;;;;;5065468;28;20048;-33
2022/12/09 04:19:24;;;;;;;18.20;8.50;;;3.00;99.90;;;;;;5053161;28;20033;-34
2022/12/09 04:21:50;;;;;;;16.90;7.63;;;3.00;99.90;;;;;;5054619;28;20083;-36
2022/12/09 04:24:16;;;;;;;15.25;7.15;;;2.90;99.90;;;;;;5056742;28;20036;-37
2022/12/09 04:26:41;;;;;;;18.73;7.78;;;2.80;99.90;;;;;;5068326;28;20416;-33
2022/12/09 04:29:09;;;;;;;16.83;7.82;;;2.80;99.90;;;;;;5076636;28;20421;-33
2022/12/09 04:31:35;;;;;;;21.20;7.22;;;2.90;99.90;;;;;;5076957;28;20107;-35
2022/12/09 04:34:01;;;;;;;18.75;7.60;;;2.90;99.90;;;;;;5067484;28;20544;-32
2022/12/09 04:36:26;;;;;;;16.00;8.20;;;2.90;99.90;;;;;;5059135;28;20104;-36
2022/12/09 04:38:52;;;;;;;18.20;7.78;;;3.00;99.90;;;;;;5065541;28;20108;-35
2022/12/09 04:41:19;;;;;;;20.52;8.40;;;2.90;99.90;;;;;;5063622;28;20533;-33
2022/12/09 04:43:44;;;;;;;18.42;7.95;;;2.90;99.90;;;;;;5075504;28;20028;-33
2022/12/09 04:46:12;;;;;;;22.77;9.82;;;2.90;99.90;;;;;;5065815;28;20033;-35
2022/12/09 04:48:38;;;;;;;16.20;7.15;;;2.80;99.90;;;;;;5058606;28;20075;-38
2022/12/09 04:51:05;;;;;;;18.75;8.90;;;2.80;99.90;;;;;;5066689;28;20327;-34
2022/12/09 04:53:31;;;;;;;15.57;7.65;;;2.80;99.90;;;;;;5068494;28;20125;-46
2022/12/09 04:56:02;;;;;;;15.43;7.32;;;2.70;99.90;;;;;;5071788;28;20047;-49
2022/12/09 04:58:28;;;;;;;21.35;8.23;;;2.60;99.90;;;;;;5075498;28;20500;-41
2022/12/09 05:00:54;;;;;;;20.67;8.52;;;2.60;99.90;;;;;;5075263;28;20035;-44
2022/12/09 05:03:20;;;;;;;17.88;8.20;;;2.50;99.90;;;;;;5071017;28;20480;-42
2022/12/09 05:05:45;;;;;;;15.75;7.55;;;2.40;99.90;;;;;;5056294;28;20104;-42
2022/12/09 05:08:11;;;;;;;18.88;8.20;;;2.30;99.90;;;;;;5061046;28;20108;-44
2022/12/09 05:10:36;;;;;;;20.35;8.85;;;2.30;99.90;;;;;;5072384;28;20480;-41
2022/12/09 05:13:02;;;;;;;18.48;7.18;;;2.30;99.90;;;;;;5061439;28;20037;-43
2022/12/09 05:15:28;;;;;;;17.70;7.63;;;2.20;99.90;;;;;;5055699;28;20468;-45
2022/12/09 05:17:54;;;;;;;20.83;9.00;;;2.20;99.90;;;;;;5056092;28;20495;-44
2022/12/09 05:20:19;;;;;;;20.08;7.82;;;2.20;99.90;;;;;;5075046;28;20024;-37
2022/12/09 05:22:45;;;;;;;16.98;8.07;;;2.10;99.90;;;;;;5058261;28;20451;-43
2022/12/09 05:25:11;;;;;;;20.73;8.50;;;2.10;99.90;;;;;;5061360;28;20078;-42
2022/12/09 05:27:36;;;;;;;15.57;7.70;;;2.00;99.90;;;;;;5056597;28;20528;-42
2022/12/09 05:30:02;;;;;;;14.40;7.40;;;2.00;99.90;;;;;;5062170;28;20109;-42
2022/12/09 05:32:29;;;;;;;16.95;7.75;;;1.90;99.90;;;;;;5060993;28;20025;-42
2022/12/09 05:34:55;;;;;;;20.35;8.20;;;1.90;99.90;;;;;;5074644;28;20032;-41
2022/12/09 05:37:20;;;;;;;15.73;7.47;;;1.80;99.90;;;;;;5060877;28;20094;-34
2022/12/09 05:39:46;;;;;;;17.65;7.28;;;1.80;99.90;;;;;;5054099;28;20021;-33
2022/12/09 05:42:11;;;;;;;20.63;6.97;;;1.70;99.90;;;;;;5059817;28;20074;-34
2022/12/09 05:44:37;;;;;;;17.98;7.65;;;1.70;99.90;;;;;;5070608;28;20036;-36
2022/12/09 05:47:03;;;;;;;19.58;7.47;;;1.60;99.90;;;;;;5072238;28;20029;-43
2022/12/09 05:49:29;;;;;;;16.85;6.90;;;1.60;99.90;;;;;;5063343;28;20056;-41
2022/12/09 05:51:54;;;;;;;14.88;7.07;;;1.60;99.90;;;;;;5056577;28;20029;-42
2022/12/09 05:54:20;;;;;;;16.48;7.07;;;1.60;99.90;;;;;;5057821;28;20124;-44
2022/12/09 05:56:46;;;;;;;20.50;8.65;;;1.60;99.90;;;;;;5061018;28;20044;-46
2022/12/09 05:59:12;;;;;;;18.70;8.23;;;1.70;99.90;;;;;;5058787;28;20043;-34
2022/12/09 06:01:37;;;;;;;17.98;7.32;;;1.70;99.90;;;;;;5067901;28;20056;-34
2022/12/09 06:04:03;;;;;;;21.77;8.50;;;1.80;99.90;;;;;;5058015;28;20052;-37
2022/12/09 06:06:29;;;;;;;20.08;7.47;;;1.80;99.90;;;;;;5063994;28;20477;-31
2022/12/09 06:09:00;;;;;;;20.67;7.93;;;1.80;99.90;;;;;;5053743;28;20036;-34
2022/12/09 06:11:26;;;;;;;18.63;8.13;;;1.90;99.90;;;;;;5055551;28;20074;-32
2022/12/09 06:13:52;;;;;;;24.17;8.27;;;1.90;99.90;;;;;;5054567;28;20036;-33
2022/12/09 06:16:20;;;;;;;25.05;9.30;;;1.80;99.90;;;;;;5054589;28;20025;-34
2022/12/09 06:18:47;;;;;;;20.13;8.15;;;1.80;99.90;;;;;;5061914;28;20078;-40
2022/12/09 06:21:14;;;;;;;23.27;9.60;;;1.70;99.90;;;;;;5064755;28;20393;-43
2022/12/09 06:23:40;;;;;;;22.05;8.52;;;1.70;99.90;;;;;;5054485;28;20086;-43
2022/12/09 06:26:06;;;;;;;18.58;8.25;;;1.70;99.90;;;;;;5054122;28;20389;-45
2022/12/09 06:28:33;;;;;;;17.92;8.18;;;1.70;99.90;;;;;;5054400;28;20025;-45
2022/12/09 06:30:58;;;;;;;27.30;9.23;;;1.80;99.90;;;;;;5061790;28;20499;-41
2022/12/09 06:33:24;;;;;;;16.38;7.68;;;1.90;99.90;;;;;;5074164;28;20028;-42
2022/12/09 06:35:50;;;;;;;18.73;8.10;;;1.80;99.90;;;;;;5053864;28;20021;-43
2022/12/09 06:38:16;;;;;;;18.70;8.25;;;1.80;99.90;;;;;;5059269;28;20099;-43
2022/12/09 06:40:42;;;;;;;23.48;9.63;;;1.70;99.90;;;;;;5068738;28;20025;-45
2022/12/09 06:43:09;;;;;;;21.55;8.45;;;1.70;99.90;;;;;;5052024;28;20029;-44
2022/12/09 06:45:37;;;;;;;21.35;8.70;;;1.60;99.90;;;;;;5057895;28;20032;-43
2022/12/09 06:48:04;;;;;;;18.40;8.95;;;1.60;99.90;;;;;;5055323;28;20158;-43
2022/12/09 06:50:30;;;;;;;21.40;8.77;;;1.50;99.90;;;;;;5073664;28;20078;-41
2022/12/09 06:52:58;;;;;;;18.35;8.48;;;1.50;99.90;;;;;;5060204;28;20404;-44
2022/12/09 06:55:24;;;;;;;24.95;9.35;;;1.50;99.90;;;;;;5056605;28;20052;-43
2022/12/09 06:57:50;;;;;;;27.60;10.45;;;1.40;99.90;;;;;;5055060;28;20488;-43
2022/12/09 07:00:15;;;;;;;22.10;9.07;;;1.50;99.90;;;;;;5066016;28;20029;-44
2022/12/09 07:02:41;;;;;;;22.40;9.57;;;1.40;99.90;;;;;;5071936;28;20021;-44
2022/12/09 07:05:07;;;;;;;24.27;9.10;;;1.40;99.90;;;;;;5060421;28;20032;-44
2022/12/09 07:07:32;;;;;;;22.58;10.52;;;1.40;99.90;;;;;;5064136;28;20020;-59
2022/12/09 07:10:01;;;;;;;21.02;9.75;;;1.40;99.90;;;;;;5068418;28;20115;-44
2022/12/09 07:12:27;;;;;;;22.92;9.38;;;1.40;99.90;;;;;;5054433;28;20100;-43
2022/12/09 07:14:53;;;;;;;27.83;9.90;;;1.40;99.90;;;;;;5071683;28;20111;-43
2022/12/09 07:17:19;;;;;;;29.70;9.98;;;1.40;99.90;;;;;;5072491;28;20016;-43
2022/12/09 07:19:45;;;;;;;30.05;11.98;;;1.40;99.90;;;;;;5067341;28;20024;-45
2022/12/09 07:22:11;;;;;;;28.55;11.88;;;1.60;99.90;;;;;;5053114;28;20464;-44
2022/12/09 07:24:38;;;;;;;28.48;11.63;;;1.70;99.90;;;;;;5056471;28;20063;-43
2022/12/09 07:27:06;;;;;;;34.92;12.73;;;1.80;99.90;;;;;;5061568;28;20567;-44
2022/12/09 07:29:33;;;;;;;30.55;13.02;;;1.90;99.90;;;;;;5072235;28;20028;-42
2022/12/09 07:31:59;;;;;;;32.83;11.93;;;1.90;99.90;;;;;;5060967;28;20481;-42
2022/12/09 07:34:24;;;;;;;38.05;13.52;;;2.00;99.90;;;;;;5059669;28;20032;-42
2022/12/09 07:36:50;;;;;;;33.05;13.77;;;2.10;99.90;;;;;;5056418;28;20536;-42
2022/12/09 07:39:17;;;;;;;41.35;13.68;;;2.00;99.90;;;;;;5063234;28;20017;-43
2022/12/09 07:41:43;;;;;;;40.20;14.80;;;2.00;99.90;;;;;;5059797;28;20401;-42
2022/12/09 07:44:09;;;;;;;43.38;15.10;;;2.10;99.90;;;;;;5058766;28;20033;-42
2022/12/09 07:46:36;;;;;;;43.97;14.73;;;2.10;99.90;;;;;;5059851;28;20056;-42
2022/12/09 07:49:03;;;;;;;44.58;16.70;;;2.00;99.90;;;;;;5069274;28;20038;-43
2022/12/09 07:51:29;;;;;;;40.83;14.23;;;2.00;99.90;;;;;;5061788;28;20136;-46
2022/12/09 07:53:55;;;;;;;43.28;16.48;;;2.00;99.90;;;;;;5064699;28;20488;-43
2022/12/09 07:56:22;;;;;;;53.47;15.50;;;2.00;99.90;;;;;;5060708;28;20432;-37
2022/12/09 07:58:50;;;;;;;37.97;15.27;;;2.00;99.90;;;;;;5065561;28;20469;-43
2022/12/09 08:01:41;;;;;;;41.80;17.05;;;2.00;99.90;;;;;;5068492;28;20104;-42
2022/12/09 08:04:07;;;;;;;39.45;13.88;;;2.10;99.90;;;;;;5060597;28;20523;-42
2022/12/09 08:06:34;;;;;;;45.78;15.23;;;2.10;99.90;;;;;;5070611;28;20037;-45
2022/12/09 08:09:02;;;;;;;42.78;14.48;;;2.20;99.90;;;;;;5066805;28;20055;-42
2022/12/09 08:11:28;;;;;;;;;;;2.30;99.90;;;;;;5057512;28;20366;-42
2022/12/09 08:13:56;;;;;;;40.55;14.70;;;2.30;99.90;;;;;;5072607;28;19920;-42
2022/12/09 08:16:23;;;;;;;41.00;15.48;;;2.30;99.90;;;;;;5053880;28;20057;-43
2022/12/09 08:18:50;;;;;;;43.05;14.98;;;2.30;99.90;;;;;;5053145;28;20025;-41
2022/12/09 08:21:20;;;;;;;38.45;13.68;;;2.30;99.90;;;;;;5052329;28;20033;-42
2022/12/09 08:23:45;;;;;;;43.58;14.40;;;2.30;99.90;;;;;;5052518;28;20505;-43
2022/12/09 08:26:13;;;;;;;36.60;13.07;;;2.30;99.90;;;;;;5058884;28;20037;-44
2022/12/09 08:28:39;;;;;;;37.90;13.63;;;2.40;99.90;;;;;;5058833;28;20025;-42
2022/12/09 08:31:07;;;;;;;43.25;16.20;;;2.40;99.90;;;;;;5055794;28;20032;-43
2022/12/09 08:33:33;;;;;;;42.45;14.68;;;2.50;99.90;;;;;;5054427;28;20174;-42
2022/12/09 08:36:00;;;;;;;44.90;15.25;;;2.50;99.90;;;;;;5054060;28;20083;-43
2022/12/09 08:38:26;;;;;;;26.23;10.23;;;2.50;99.90;;;;;;5056656;28;20469;-41
2022/12/09 08:40:51;;;;;;;36.58;13.80;;;2.50;99.90;;;;;;5064057;28;20285;-41
2022/12/09 08:43:17;;;;;;;36.42;14.70;;;2.40;99.90;;;;;;5067398;28;20105;-42
2022/12/09 08:45:42;;;;;;;41.83;15.10;;;2.40;99.90;;;;;;5068921;28;20112;-42
2022/12/09 08:48:08;;;;;;;42.30;13.57;;;2.40;99.90;;;;;;5066128;28;20492;-45
2022/12/09 08:50:34;;;;;;;43.80;14.88;;;2.40;99.90;;;;;;5064705;28;20078;-45
2022/12/09 08:53:00;;;;;;;39.88;14.10;;;2.40;99.90;;;;;;5052059;28;20048;-42
2022/12/09 08:55:26;;;;;;;48.65;14.88;;;2.40;99.90;;;;;;5064957;28;20040;-46
2022/12/09 08:57:52;;;;;;;33.33;13.18;;;2.40;99.90;;;;;;5057235;28;20028;-44
2022/12/09 09:00:18;;;;;;;43.45;15.65;;;2.50;99.90;;;;;;5054497;28;20472;-50
2022/12/09 09:02:44;;;;;;;37.25;14.18;;;2.60;99.90;;;;;;5083176;28;20033;-42
2022/12/09 09:05:09;;;;;;;41.17;14.73;;;2.70;99.90;;;;;;5064102;28;20082;-42
2022/12/09 09:07:35;;;;;;;37.63;13.70;;;2.70;99.90;;;;;;5065543;28;20392;-59
2022/12/09 09:10:01;;;;;;;34.22;13.35;;;2.70;99.90;;;;;;5063305;28;20368;-46
2022/12/09 09:12:27;;;;;;;32.72;13.85;;;2.60;99.90;;;;;;5055063;28;20090;-43
2022/12/09 09:14:53;;;;;;;36.08;13.32;;;2.50;99.90;;;;;;5070592;28;20166;-42
2022/12/09 09:17:20;;;;;;;40.47;13.25;;;2.50;99.90;;;;;;5058653;28;20029;-42
2022/12/09 09:19:45;;;;;;;34.03;13.50;;;2.60;99.90;;;;;;5054750;28;20104;-40
2022/12/09 09:22:11;;;;;;;32.65;12.15;;;2.60;99.90;;;;;;5061136;28;20233;-44
2022/12/09 09:24:37;;;;;;;37.72;14.63;;;2.60;99.90;;;;;;5060240;28;20103;-46
2022/12/09 09:27:02;;;;;;;40.88;13.93;;;2.60;99.90;;;;;;5065423;28;20127;-42
2022/12/09 09:29:31;;;;;;;40.17;14.48;;;2.70;99.90;;;;;;5074279;28;20438;-50
2022/12/09 09:31:57;;;;;;;37.30;13.68;;;2.70;99.90;;;;;;5060833;28;20028;-44
2022/12/09 09:34:24;;;;;;;39.20;12.80;;;2.70;99.90;;;;;;5063234;28;20025;-33
2022/12/09 09:36:50;;;;;;;42.92;14.85;;;2.80;99.90;;;;;;5066257;28;20024;-38
2022/12/09 09:39:17;;;;;;;35.08;14.18;;;2.90;99.90;;;;;;5070437;28;20086;-34
2022/12/09 09:41:54;;;;;;;34.22;13.82;;;2.90;99.90;;;;;;5063583;28;20052;-33
2022/12/09 09:44:38;;;;;;;37.90;14.05;;;3.00;99.90;;;;;;5063609;28;20043;-37
2022/12/09 09:47:27;;;;;;;40.08;14.15;;;3.10;99.90;;;;;;5068072;28;20404;-36
2022/12/09 09:50:01;;;;;;;41.30;14.50;;;3.20;99.90;;;;;;5059397;28;20025;-48
2022/12/09 09:52:28;;;;;;;39.05;15.02;;;3.20;99.90;;;;;;5059641;28;20481;-43
2022/12/09 09:54:54;;;;;;;36.50;13.90;;;3.20;99.90;;;;;;5068638;28;20517;-39
2022/12/09 09:57:32;;;;;;;43.80;14.82;;;3.30;99.90;;;;;;5055800;28;20148;-31
2022/12/09 10:00:27;;;;;;;37.80;13.30;;;3.40;99.90;;;;;;5055504;28;20032;-38
2022/12/09 10:03:00;;;;;;;35.97;13.63;;;3.40;99.90;;;;;;5066093;28;20533;-32
2022/12/09 10:05:33;;;;;;;35.92;13.98;;;3.40;99.90;;;;;;5075173;28;20017;-40
2022/12/09 10:08:02;;;;;;;35.47;13.18;;;3.40;99.90;;;;;;5074732;28;20524;-37
2022/12/09 10:10:49;;;;;;;38.05;13.70;;;3.40;99.90;;;;;;5073439;28;20041;-39
2022/12/09 10:13:33;;;;;;;35.35;14.85;;;3.50;99.90;;;;;;5055864;28;20075;-36
2022/12/09 10:16:04;;;;;;;39.22;13.63;;;3.60;99.90;;;;;;5058016;28;20511;-33
2022/12/09 10:18:53;;;;;;;36.08;13.30;;;3.60;99.90;;;;;;5053633;28;20033;-33
2022/12/09 10:21:20;;;;;;;35.50;13.95;;;3.70;99.90;;;;;;5051470;28;20116;-34
2022/12/09 10:23:47;;;;;;;47.15;15.52;;;3.80;99.90;;;;;;5066255;28;20033;-37
2022/12/09 10:26:22;;;;;;;40.03;14.50;;;3.80;99.90;;;;;;5072748;28;20043;-37
2022/12/09 10:28:55;;;;;;;39.85;12.90;;;3.80;99.90;;;;;;5054046;28;20473;-40
2022/12/09 10:31:20;;;;;;;33.00;14.15;;;3.70;99.90;;;;;;5057034;28;20546;-37
2022/12/09 10:33:47;;;;;;;36.67;13.35;;;3.70;99.90;;;;;;5055091;28;20025;-37
2022/12/09 10:36:23;;;;;;;39.53;13.03;;;3.70;99.90;;;;;;5057590;28;20036;-34
2022/12/09 10:38:49;;;;;;;35.45;14.40;;;3.70;99.90;;;;;;5061205;28;20021;-34
2022/12/09 10:44:22;;;;;;;34.03;13.80;;;3.60;99.90;;;;;;5072905;28;20135;-37
2022/12/09 10:47:03;;;;;;;35.83;14.07;;;3.50;99.90;;;;;;5072002;28;20427;-35
2022/12/09 10:49:29;;;;;;;37.90;13.38;;;3.40;99.90;;;;;;5059570;28;20028;-34
2022/12/09 10:51:55;;;;;;;37.13;14.20;;;3.50;99.90;;;;;;5057945;28;20021;-36
2022/12/09 10:54:35;;;;;;;34.88;15.48;;;3.60;99.90;;;;;;5053663;28;20144;-57
2022/12/09 10:57:06;;;;;;;40.30;15.15;;;3.60;99.90;;;;;;5053709;28;20108;-39
2022/12/09 10:59:33;;;;;;;38.38;15.38;;;3.60;99.90;;;;;;5053762;28;20051;-51
2022/12/09 11:02:07;;;;;;;38.47;14.35;;;3.60;99.90;;;;;;5052354;28;20500;-37
2022/12/09 11:04:41;;;;;;;35.88;13.02;;;3.70;99.90;;;;;;5053305;28;20029;-36
2022/12/09 11:07:17;;;;;;;39.13;13.50;;;3.70;99.90;;;;;;5053847;28;20025;-34
2022/12/09 11:09:49;;;;;;;38.70;13.88;;;3.70;99.90;;;;;;5067329;28;20032;-36
2022/12/09 11:12:27;;;;;;;34.90;11.43;;;3.80;99.90;;;;;;5063209;28;20040;-37
2022/12/09 11:14:53;;;;;;;38.75;13.35;;;3.80;99.90;;;;;;5061252;28;20028;-36
2022/12/09 11:17:26;;;;;;;39.05;13.82;;;3.80;99.90;;;;;;5056789;28;20025;-35
2022/12/09 11:20:22;;;;;;;36.17;13.63;;;3.90;99.90;;;;;;5066002;28;20025;-35
2022/12/09 11:23:12;;;;;;;52.25;20.33;;;4.00;99.90;;;;;;5048173;28;20539;-34
2022/12/09 11:25:57;;;;;;;135.88;56.75;;;4.00;99.90;;;;;;5068915;28;20021;-34
2022/12/09 11:28:30;;;;;;;30.30;16.05;;;4.20;99.90;;;;;;5054496;28;20027;-34
2022/12/09 11:31:04;;;;;;;37.25;13.32;;;4.10;99.90;;;;;;5055396;28;20021;-36
2022/12/09 11:33:34;;;;;;;38.67;13.43;;;4.00;99.90;;;;;;5069747;28;20044;-35
2022/12/09 11:36:03;;;;;;;34.97;13.15;;;4.00;99.90;;;;;;5061063;28;20025;-34
2022/12/09 11:38:29;;;;;;;26.85;11.35;;;4.00;99.90;;;;;;5057905;28;20029;-36
2022/12/09 11:41:12;;;;;;;33.88;13.07;;;4.00;99.90;;;;;;5070965;28;20032;-31
2022/12/09 11:43:43;;;;;;;35.50;12.30;;;4.10;99.90;;;;;;5060674;28;20524;-38
2022/12/09 11:46:11;;;;;;;31.65;12.23;;;4.10;99.90;;;;;;5070114;28;20540;-31
2022/12/09 11:48:38;;;;;;;29.42;11.98;;;4.10;99.90;;;;;;5064540;28;20031;-41
2022/12/09 11:51:17;;;;;;;33.53;12.50;;;4.00;99.90;;;;;;5051906;28;20056;-34
2022/12/09 11:53:45;;;;;;;32.90;12.18;;;3.90;99.90;;;;;;5052260;28;20357;-40
2022/12/09 11:56:16;;;;;;;36.80;14.20;;;4.00;99.90;;;;;;5071692;28;20028;-38
2022/12/09 11:58:52;;;;;;;31.08;12.68;;;4.10;99.90;;;;;;5058121;28;20074;-36
2022/12/09 12:01:33;;;;;;;36.90;15.48;;;4.10;99.90;;;;;;5052248;28;20112;-36
2022/12/09 12:04:04;;;;;;;31.58;12.80;;;4.10;99.90;;;;;;5063313;28;20025;-34
2022/12/09 12:06:44;;;;;;;31.35;12.30;;;4.00;99.90;;;;;;5072733;28;20498;-43
2022/12/09 12:09:19;;;;;;;32.05;12.15;;;3.90;99.90;;;;;;5065295;28;20059;-34
2022/12/09 12:12:22;;;;;;;29.60;12.60;;;3.80;99.90;;;;;;5070397;28;20040;-36
2022/12/09 12:14:48;;;;;;;32.88;13.35;;;3.80;99.90;;;;;;5034342;28;20538;-42
2022/12/09 12:17:18;;;;;;;30.85;12.55;;;3.80;99.90;;;;;;5070628;28;20033;-41
2022/12/09 12:19:49;;;;;;;27.02;11.95;;;3.80;99.90;;;;;;5058007;28;20373;-44
2022/12/09 12:22:51;;;;;;;39.17;13.32;;;3.90;99.90;;;;;;5069872;28;20037;-42
2022/12/09 12:25:28;;;;;;;25.77;11.55;;;3.90;99.90;;;;;;5059952;28;20028;-43
2022/12/09 12:28:31;;;;;;;30.35;12.45;;;3.90;99.90;;;;;;5068438;28;20067;-42
2022/12/09 12:31:23;;;;;;;34.08;12.55;;;3.90;99.90;;;;;;5061745;28;20038;-41
2022/12/09 12:34:21;;;;;;;31.42;13.25;;;3.90;99.90;;;;;;5070442;28;20032;-44
2022/12/09 12:36:59;;;;;;;28.73;12.93;;;4.00;99.90;;;;;;5072453;28;20179;-43
2022/12/09 12:39:30;;;;;;;35.85;12.93;;;4.00;99.90;;;;;;5058700;28;20031;-47
2022/12/09 12:42:31;;;;;;;32.72;13.80;;;4.00;99.90;;;;;;5069650;28;20031;-43
2022/12/09 12:48:26;;;;;;;38.10;13.98;;;4.10;99.90;;;;;;5073323;28;20097;-43
2022/12/09 12:51:10;;;;;;;31.98;12.85;;;4.00;99.90;;;;;;5070800;28;20033;-46
2022/12/09 12:53:44;;;;;;;33.65;14.35;;;4.00;99.90;;;;;;5066788;28;20029;-44
2022/12/09 12:56:25;;;;;;;28.85;12.18;;;4.00;99.90;;;;;;5057860;28;20069;-44
2022/12/09 12:59:20;;;;;;;28.77;11.32;;;4.00;99.90;;;;;;5058182;28;20453;-44
2022/12/09 13:02:17;;;;;;;26.42;11.65;;;4.00;99.90;;;;;;5067582;28;20024;-45
2022/12/09 13:05:10;;;;;;;34.95;13.95;;;4.10;99.90;;;;;;5071760;28;20064;-42